Terminal Aerodrome Forecast
Issued by NWS

Home | Current Version | Previous Version | Graphics & Text | Print | Product List | Glossary On
Versions: 1 2 3 4 5 6 7 8 9 10 11 12 13 14 15 16 17 18
786
FTUS43 KMPX 132335
TAFAXN
TAF
KAXN 132335Z 1400/1424 35012G20KT P6SM BKN018
     FM140400 33008KT P6SM BKN015
     FM140900 30007KT P6SM OVC010
      TEMPO 1409/1413 OVC007
     FM141800 31009KT P6SM BKN020=

USA.gov is the U.S. government's official web portal to all federal, state and local government web resources and services.